createdAt,value
2017-05-25T00:00:07.822Z,96.84
2017-05-25T00:01:20.360Z,96.94
2017-05-25T00:02:32.885Z,97.51
2017-05-25T00:03:45.131Z,97.03
2017-05-25T00:04:57.061Z,97.13
2017-05-25T00:06:09.594Z,97.03
2017-05-25T00:07:21.493Z,96.84
2017-05-25T00:08:33.434Z,97.03
2017-05-25T00:09:45.690Z,97.22
2017-05-25T00:10:57.913Z,96.84
2017-05-25T00:12:09.851Z,97.41
2017-05-25T00:13:22.107Z,97.17
2017-05-25T00:14:34.352Z,97.41
2017-05-25T00:15:46.960Z,97.41
2017-05-25T00:16:59.515Z,97.36
2017-05-25T00:18:11.761Z,97.7
2017-05-25T00:19:23.712Z,97.27
2017-05-25T00:20:35.647Z,97.08
2017-05-25T00:21:47.902Z,97.36
2017-05-25T00:23:00.136Z,97.36
2017-05-25T00:24:12.337Z,97.08
2017-05-25T00:25:24.581Z,97.27
2017-05-25T00:26:37.112Z,97.17
2017-05-25T00:27:49.645Z,97.36
2017-05-25T00:29:02.174Z,97.84
2017-05-25T00:30:14.416Z,97.65
2017-05-25T00:31:26.970Z,97.84
2017-05-25T00:32:39.236Z,97.55
2017-05-25T00:33:51.453Z,97.55
2017-05-25T00:35:03.107Z,97.65
2017-05-25T00:36:15.429Z,97.84
2017-05-25T00:37:27.699Z,98.03
2017-05-25T00:38:39.945Z,98.03
2017-05-25T00:39:52.490Z,98.03
2017-05-25T00:41:04.730Z,97.74
2017-05-25T00:42:16.679Z,97.74
2017-05-25T00:43:29.219Z,97.84
2017-05-25T00:44:41.742Z,98.69
2017-05-25T00:45:53.991Z,98.03
2017-05-25T00:47:05.942Z,98.79
2017-05-25T00:48:18.454Z,98.69
2017-05-25T00:49:31.027Z,98.79
2017-05-25T00:50:43.596Z,98.79
2017-05-25T00:51:55.527Z,98.41
2017-05-25T00:53:07.746Z,98.41
2017-05-25T00:54:20.259Z,98.22
2017-05-25T00:55:32.804Z,98.32
2017-05-25T00:56:45.034Z,98.5
2017-05-25T00:57:56.952Z,98.65
2017-05-25T00:59:09.172Z,98.55
2017-05-25T01:00:21.422Z,98.55
2017-05-25T01:01:33.967Z,98.83
2017-05-25T01:02:46.513Z,98.74
2017-05-25T01:03:58.752Z,98.65
2017-05-25T01:05:10.994Z,98.83
2017-05-25T01:06:23.190Z,98.74
2017-05-25T01:07:35.063Z,98.65
2017-05-25T01:08:47.314Z,98.74
2017-05-25T01:09:59.535Z,98.83
2017-05-25T01:11:11.447Z,98.46
2017-05-25T01:12:23.674Z,98.74
2017-05-25T01:13:36.215Z,98.74
2017-05-25T01:14:48.447Z,98.93
2017-05-25T01:16:00.990Z,98.55
2017-05-25T01:17:13.214Z,98.46
2017-05-25T01:18:25.451Z,98.55
2017-05-25T01:19:37.377Z,98.93
2017-05-25T01:20:49.901Z,98.93
2017-05-25T01:22:02.140Z,98.74
2017-05-25T01:23:14.394Z,98.65
2017-05-25T01:24:26.639Z,98.55
2017-05-25T01:25:38.853Z,98.65
2017-05-25T01:26:51.381Z,98.74
2017-05-25T01:28:03.905Z,98.93
2017-05-25T01:29:16.688Z,98.65
2017-05-25T01:30:28.911Z,98.93
2017-05-25T01:31:41.133Z,98.93
2017-05-25T01:32:52.773Z,99.5
2017-05-25T01:34:05.004Z,99.41
2017-05-25T01:35:17.242Z,99.31
2017-05-25T01:36:29.749Z,99.5
2017-05-25T01:37:42.291Z,99.6
2017-05-25T01:38:54.833Z,99.69
2017-05-25T01:40:07.358Z,99.41
2017-05-25T01:41:19.896Z,99.5
2017-05-25T01:42:32.425Z,99.22
2017-05-25T01:43:44.967Z,99.69
2017-05-25T01:44:57.466Z,99.31
2017-05-25T01:46:09.706Z,99.41
2017-05-25T01:47:21.935Z,99.6
2017-05-25T01:48:34.212Z,99.6
2017-05-25T01:49:46.454Z,99.22
2017-05-25T01:50:58.652Z,99.31
2017-05-25T01:52:11.212Z,99.12
2017-05-25T01:53:23.113Z,99.6
2017-05-25T01:54:35.659Z,99.12
2017-05-25T01:55:47.915Z,99.41
2017-05-25T01:57:00.151Z,99.41
2017-05-25T01:58:12.692Z,99.6
2017-05-25T01:59:25.242Z,99.79
2017-05-25T02:00:37.769Z,99.41
2017-05-25T02:01:50.310Z,99.79
2017-05-25T02:03:02.258Z,99.6
2017-05-25T02:04:14.772Z,99.98
2017-05-25T02:05:27.315Z,99.99
2017-05-25T02:06:39.847Z,99.98
2017-05-25T02:07:52.634Z,99.98
2017-05-25T02:09:05.217Z,99.98
2017-05-25T02:10:17.450Z,99.99
2017-05-25T02:11:29.680Z,99.99
2017-05-25T02:12:41.923Z,99.88
2017-05-25T02:13:54.464Z,99.88
2017-05-25T02:15:06.699Z,99.99
2017-05-25T02:16:19.203Z,99.98
2017-05-25T02:17:31.406Z,99.88
2017-05-25T02:18:43.359Z,99.79
2017-05-25T02:19:55.628Z,99.88
2017-05-25T02:21:07.873Z,99.98
2017-05-25T02:22:20.443Z,99.99
2017-05-25T02:23:32.614Z,99.99
2017-05-25T02:24:44.882Z,99.99
2017-05-25T02:25:57.120Z,99.98
2017-05-25T02:27:09.044Z,99.69
2017-05-25T02:28:21.297Z,99.99
2017-05-25T02:29:33.511Z,99.99
2017-05-25T02:30:46.037Z,99.93
2017-05-25T02:31:58.553Z,99.99
2017-05-25T02:33:10.195Z,99.99
2017-05-25T02:34:22.429Z,99.99
2017-05-25T02:35:34.963Z,99.99
2017-05-25T02:36:47.514Z,99.99
2017-05-25T02:37:59.738Z,99.99
2017-05-25T02:39:12.286Z,99.99
2017-05-25T02:40:24.524Z,99.99
2017-05-25T02:41:36.775Z,99.99
2017-05-25T02:42:49.324Z,99.99
2017-05-25T02:44:01.862Z,99.99
2017-05-25T02:45:14.414Z,99.99
2017-05-25T02:46:26.651Z,99.99
2017-05-25T02:47:38.596Z,99.99
2017-05-25T02:48:50.546Z,99.99
2017-05-25T02:50:03.071Z,99.99
2017-05-25T02:51:15.622Z,99.99
2017-05-25T02:52:28.156Z,99.99
2017-05-25T02:53:40.089Z,99.99
2017-05-25T02:54:52.023Z,99.99
2017-05-25T02:56:04.543Z,99.99
2017-05-25T02:57:17.068Z,99.99
2017-05-25T02:58:29.587Z,99.99
2017-05-25T02:59:42.131Z,99.99
2017-05-25T03:00:54.655Z,99.99
2017-05-25T03:02:06.897Z,99.99
2017-05-25T03:03:18.826Z,99.99
2017-05-25T03:04:31.367Z,99.99
2017-05-25T03:05:43.899Z,99.99
2017-05-25T03:06:56.142Z,99.99
2017-05-25T03:08:08.361Z,99.99
2017-05-25T03:09:20.883Z,99.99
2017-05-25T03:10:32.823Z,99.99
2017-05-25T03:11:45.343Z,99.99
2017-05-25T03:12:57.585Z,99.99
2017-05-25T03:14:09.207Z,99.99
2017-05-25T03:15:21.431Z,99.99
2017-05-25T03:16:33.953Z,99.99
2017-05-25T03:17:46.469Z,99.99
2017-05-25T03:18:59.002Z,99.99
2017-05-25T03:20:10.673Z,99.99
2017-05-25T03:21:23.219Z,99.99
2017-05-25T03:22:35.779Z,99.99
2017-05-25T03:23:48.009Z,99.99
2017-05-25T03:25:00.269Z,99.99
2017-05-25T03:26:12.194Z,99.99
2017-05-25T03:27:24.140Z,99.99
2017-05-25T03:28:36.686Z,99.99
2017-05-25T03:29:49.228Z,99.99
2017-05-25T03:31:01.725Z,99.99
2017-05-25T03:32:13.679Z,99.99
2017-05-25T03:33:25.920Z,99.99
2017-05-25T03:34:38.549Z,99.99
2017-05-25T03:35:51.096Z,99.99
2017-05-25T03:37:02.736Z,99.99
2017-05-25T03:38:14.683Z,99.99
2017-05-25T03:39:27.238Z,99.99
2017-05-25T03:40:39.767Z,99.99
2017-05-25T03:41:51.990Z,99.99
2017-05-25T03:43:04.537Z,99.99
2017-05-25T03:44:17.063Z,99.99
2017-05-25T03:45:29.601Z,99.99
2017-05-25T03:46:42.150Z,99.99
2017-05-25T03:47:54.678Z,99.99
2017-05-25T03:49:06.899Z,99.99
2017-05-25T03:50:19.437Z,99.99
2017-05-25T03:51:31.955Z,99.99
2017-05-25T03:52:44.525Z,99.99
2017-05-25T03:53:57.056Z,99.99
2017-05-25T03:55:09.575Z,99.99
2017-05-25T03:56:21.822Z,99.99
2017-05-25T03:57:34.344Z,99.99
2017-05-25T03:58:46.881Z,99.99
2017-05-25T03:59:59.109Z,99.99
2017-05-25T04:01:11.955Z,99.99
2017-05-25T04:02:24.171Z,99.99
2017-05-25T04:03:36.702Z,99.99
2017-05-25T04:04:48.910Z,99.99
2017-05-25T04:06:01.139Z,99.99
2017-05-25T04:07:13.678Z,99.99
2017-05-25T04:08:25.601Z,99.99
2017-05-25T04:09:38.144Z,99.99
2017-05-25T04:10:50.372Z,99.99
2017-05-25T04:12:02.592Z,99.99
2017-05-25T04:13:14.507Z,99.99
2017-05-25T04:14:26.713Z,99.99
2017-05-25T04:15:39.231Z,99.99
2017-05-25T04:16:51.476Z,99.99
2017-05-25T04:18:03.426Z,99.99
2017-05-25T04:19:15.960Z,99.99
2017-05-25T04:20:27.890Z,99.99
2017-05-25T04:21:40.138Z,99.99
2017-05-25T04:22:52.674Z,99.99
2017-05-25T04:24:04.578Z,99.99
2017-05-25T04:25:16.803Z,99.99
2017-05-25T04:26:29.369Z,99.99
2017-05-25T04:27:41.883Z,99.99
2017-05-25T04:28:54.082Z,99.99
2017-05-25T04:30:06.027Z,99.99
2017-05-25T04:31:17.981Z,99.99
2017-05-25T04:32:30.228Z,99.99
2017-05-25T04:33:42.771Z,99.99
2017-05-25T04:34:55.019Z,99.99
2017-05-25T04:36:07.586Z,99.99
2017-05-25T04:37:20.125Z,99.99
2017-05-25T04:38:32.650Z,99.99
2017-05-25T04:39:44.892Z,99.99
2017-05-25T04:40:56.814Z,99.99
2017-05-25T04:42:09.045Z,99.99
2017-05-25T04:43:21.255Z,99.99
2017-05-25T04:44:33.176Z,99.99
2017-05-25T04:45:45.675Z,99.99
2017-05-25T04:46:58.184Z,99.99
2017-05-25T04:48:10.121Z,99.99
2017-05-25T04:49:22.385Z,99.99
2017-05-25T04:50:34.906Z,99.99
2017-05-25T04:51:46.834Z,99.99
2017-05-25T04:52:59.058Z,99.99
2017-05-25T04:54:11.601Z,99.99
2017-05-25T04:55:24.125Z,99.99
2017-05-25T04:56:36.360Z,99.99
2017-05-25T04:57:48.864Z,99.99
2017-05-25T04:59:01.401Z,99.99
2017-05-25T05:00:13.933Z,99.99
2017-05-25T05:01:26.468Z,99.99
2017-05-25T05:02:38.697Z,99.99
2017-05-25T05:03:51.248Z,99.99
2017-05-25T05:05:03.491Z,99.89
2017-05-25T05:06:15.735Z,99.99
2017-05-25T05:07:28.273Z,99.99
2017-05-25T05:08:40.522Z,99.89
2017-05-25T05:09:53.048Z,99.6
2017-05-25T05:11:05.268Z,99.99
2017-05-25T05:12:17.510Z,99.89
2017-05-25T05:13:30.063Z,99.89
2017-05-25T05:14:42.278Z,99.89
2017-05-25T05:15:54.794Z,99.79
2017-05-25T05:17:07.315Z,99.41
2017-05-25T05:18:19.536Z,99.37
2017-05-25T05:19:31.458Z,99.46
2017-05-25T05:20:43.753Z,99.08
2017-05-25T05:21:56.287Z,99.46
2017-05-25T05:23:08.823Z,98.89
2017-05-25T05:24:21.377Z,98.7
2017-05-25T05:25:33.599Z,98.79
2017-05-25T05:26:46.111Z,98.65
2017-05-25T05:27:58.653Z,98.56
2017-05-25T05:29:10.278Z,98.46
2017-05-25T05:30:22.549Z,98.46
2017-05-25T05:31:35.091Z,98.08
2017-05-25T05:32:47.616Z,97.89
2017-05-25T05:33:59.867Z,97.66
2017-05-25T05:35:12.405Z,97.85
2017-05-25T05:36:24.937Z,96.61
2017-05-25T05:37:37.174Z,96.7
2017-05-25T05:38:49.467Z,96.7
2017-05-25T05:40:01.998Z,96.41
2017-05-25T05:41:14.237Z,96.03
2017-05-25T05:42:26.788Z,95.94
2017-05-25T05:43:39.310Z,96.08
2017-05-25T05:44:51.829Z,96.08
2017-05-25T05:46:04.374Z,95.89
2017-05-25T05:47:16.324Z,96.08
2017-05-25T05:48:28.584Z,96.37
2017-05-25T05:49:41.131Z,95.51
2017-05-25T05:50:53.651Z,95.12
2017-05-25T05:52:06.196Z,95.03
2017-05-25T05:53:18.418Z,94.84
2017-05-25T05:54:30.620Z,94.74
2017-05-25T05:55:42.863Z,94.65
2017-05-25T05:56:55.380Z,94.65
2017-05-25T05:58:07.612Z,94.46
2017-05-25T05:59:19.260Z,94.36
2017-05-25T06:00:32.143Z,94.36
2017-05-25T06:01:44.702Z,94.6
2017-05-25T06:02:57.268Z,94.7
2017-05-25T06:04:09.813Z,94.51
2017-05-25T06:05:22.340Z,94.51
2017-05-25T06:06:34.561Z,93.84
2017-05-25T06:07:47.122Z,94.03
2017-05-25T06:08:59.665Z,94.03
2017-05-25T06:10:11.872Z,94.41
2017-05-25T06:11:24.393Z,93.84
2017-05-25T06:12:36.934Z,93.7
2017-05-25T06:13:49.511Z,93.31
2017-05-25T06:15:01.418Z,92.55
2017-05-25T06:16:13.366Z,93.02
2017-05-25T06:17:25.616Z,92.64
2017-05-25T06:18:37.239Z,92.5
2017-05-25T06:19:49.792Z,91.54
2017-05-25T06:21:02.332Z,91.74
2017-05-25T06:22:14.856Z,91.49
2017-05-25T06:23:27.391Z,90.25
2017-05-25T06:24:39.615Z,90.63
2017-05-25T06:25:52.169Z,90.06
2017-05-25T06:27:04.728Z,90.34
2017-05-25T06:28:17.282Z,89.29
2017-05-25T06:29:29.803Z,89.43
2017-05-25T06:30:41.748Z,89.53
2017-05-25T06:31:53.691Z,89.53
2017-05-25T06:33:06.244Z,89.34
2017-05-25T06:34:18.486Z,88.76
2017-05-25T06:35:30.713Z,88.86
2017-05-25T06:36:42.957Z,88.95
2017-05-25T06:37:55.199Z,88.38
2017-05-25T06:39:07.740Z,88.33
2017-05-25T06:40:19.984Z,88.04
2017-05-25T06:41:32.506Z,88.23
2017-05-25T06:42:44.751Z,87.9
2017-05-25T06:43:56.671Z,87.23
2017-05-25T06:45:08.266Z,87.08
2017-05-25T06:46:20.198Z,85.58
2017-05-25T06:47:32.437Z,84.67
2017-05-25T06:48:44.692Z,84.58
2017-05-25T06:49:57.215Z,83.56
2017-05-25T06:51:09.779Z,82.93
2017-05-25T06:52:21.429Z,82.35
2017-05-25T06:53:33.989Z,82.01
2017-05-25T06:54:46.520Z,81.67
2017-05-25T06:55:59.066Z,81.38
2017-05-25T06:57:10.102Z,80.84
2017-05-25T06:58:22.629Z,79.3
2017-05-25T06:59:34.902Z,79.63
2017-05-25T07:00:47.397Z,79
2017-05-25T07:01:59.936Z,78.52
2017-05-25T07:03:11.884Z,77.21
2017-05-25T07:04:24.106Z,76.25
2017-05-25T07:05:36.649Z,75.32
2017-05-25T07:06:48.897Z,72.72
2017-05-25T07:08:01.449Z,72.18
2017-05-25T07:09:13.993Z,70.35
2017-05-25T07:10:25.939Z,67.3
2017-05-25T07:11:38.481Z,67.2
2017-05-25T07:12:51.013Z,66.62
2017-05-25T07:14:02.973Z,66.85
2017-05-25T07:15:15.227Z,66.08
2017-05-25T07:16:27.473Z,64.95
2017-05-25T07:17:40.017Z,63.89
2017-05-25T07:18:52.589Z,62.86
2017-05-25T07:20:05.106Z,62.37
2017-05-25T07:21:17.356Z,61.12
2017-05-25T07:22:29.619Z,60.64
2017-05-25T07:23:42.166Z,60.16
2017-05-25T07:24:54.411Z,60.93
2017-05-25T07:26:06.664Z,61.02
2017-05-25T07:27:18.910Z,60.86
2017-05-25T07:28:31.450Z,60.76
2017-05-25T07:29:43.716Z,59.89
2017-05-25T07:30:56.270Z,60.18
2017-05-25T07:32:08.507Z,60.18
2017-05-25T07:33:20.754Z,59.41
2017-05-25T07:34:33.310Z,58.95
2017-05-25T07:35:45.231Z,58.28
2017-05-25T07:36:57.795Z,58.09
2017-05-25T07:38:10.644Z,56.54
2017-05-25T07:39:22.312Z,56.95
2017-05-25T07:40:34.886Z,56.63
2017-05-25T07:41:46.904Z,56.09
2017-05-25T07:42:59.460Z,56.28
2017-05-25T07:44:11.093Z,56.47
2017-05-25T07:45:23.313Z,56.28
2017-05-25T07:46:35.838Z,56.54
2017-05-25T07:47:47.812Z,56.83
2017-05-25T07:49:00.361Z,57.51
2017-05-25T07:50:12.321Z,57.09
2017-05-25T07:51:23.954Z,57.29
2017-05-25T07:52:35.914Z,57.67
2017-05-25T07:53:48.195Z,57.77
2017-05-25T07:55:00.746Z,58.06
2017-05-25T07:56:12.701Z,57.57
2017-05-25T07:57:24.926Z,57.6
2017-05-25T07:58:37.201Z,57.7
2017-05-25T07:59:49.464Z,56.54
2017-05-25T08:01:01.695Z,55.89
2017-05-25T08:02:13.656Z,56.09
2017-05-25T08:03:26.185Z,56.05
2017-05-25T08:04:38.727Z,56.54
2017-05-25T08:05:51.296Z,57.21
2017-05-25T08:07:03.843Z,56.99
2017-05-25T08:08:16.073Z,57.12
2017-05-25T08:09:28.340Z,57.77
2017-05-25T08:10:40.911Z,57.12
2017-05-25T08:11:53.459Z,56.93
2017-05-25T08:13:05.733Z,56.73
2017-05-25T08:14:17.989Z,56.35
2017-05-25T08:15:30.244Z,55.89
2017-05-25T08:16:42.489Z,55.77
2017-05-25T08:17:54.733Z,55.67
2017-05-25T08:19:07.300Z,55.57
2017-05-25T08:20:18.930Z,55.87
2017-05-25T08:21:31.494Z,56.25
2017-05-25T08:22:44.112Z,55.19
2017-05-25T08:23:56.661Z,54.99
2017-05-25T08:25:08.907Z,55.67
2017-05-25T08:26:20.858Z,55.74
2017-05-25T08:27:33.425Z,54.99
2017-05-25T08:28:45.704Z,55.47
2017-05-25T08:29:58.275Z,55.47
2017-05-25T08:31:10.517Z,54.9
2017-05-25T08:32:22.462Z,55.77
2017-05-25T08:33:35.003Z,55.38
2017-05-25T08:34:47.256Z,55.57
2017-05-25T08:35:59.827Z,54.61
2017-05-25T08:37:12.090Z,54.77
2017-05-25T08:38:24.044Z,55.26
2017-05-25T08:39:36.287Z,56.2
2017-05-25T08:40:48.566Z,57.06
2017-05-25T08:42:01.120Z,57.64
2017-05-25T08:43:13.367Z,57.52
2017-05-25T08:44:25.613Z,58.39
2017-05-25T08:45:38.170Z,58.45
2017-05-25T08:46:50.708Z,58.55
2017-05-25T08:48:02.675Z,59
2017-05-25T08:49:15.225Z,59.68
2017-05-25T08:50:26.866Z,60.06
2017-05-25T08:51:38.176Z,60.55
2017-05-25T08:52:50.746Z,60.32
2017-05-25T08:54:03.006Z,61.13
2017-05-25T08:55:14.936Z,60.71
2017-05-25T08:56:26.876Z,61.48
2017-05-25T08:57:39.478Z,62.45
2017-05-25T08:58:51.127Z,62.22
2017-05-25T09:00:03.697Z,62.22
2017-05-25T09:01:15.956Z,62.9
2017-05-25T09:02:27.886Z,62.32
2017-05-25T09:03:39.555Z,62.41
2017-05-25T09:04:51.822Z,62.22
2017-05-25T09:06:04.076Z,62.22
2017-05-25T09:07:16.348Z,62.41
2017-05-25T09:08:28.591Z,63.28
2017-05-25T09:09:41.156Z,64.25
2017-05-25T09:10:53.381Z,64.02
2017-05-25T09:12:05.395Z,64.5
2017-05-25T09:13:17.345Z,64.5
2017-05-25T09:14:29.886Z,65.85
2017-05-25T09:15:42.414Z,64.89
2017-05-25T09:16:54.932Z,65.11
2017-05-25T09:18:06.878Z,64.15
2017-05-25T09:19:19.398Z,63.85
2017-05-25T09:20:31.994Z,63.6
2017-05-25T09:21:44.565Z,63.67
2017-05-25T09:22:57.120Z,63.76
2017-05-25T09:24:08.765Z,64.05
2017-05-25T09:25:21.027Z,63.95
2017-05-25T09:26:33.578Z,64.08
2017-05-25T09:27:45.817Z,63.89
2017-05-25T09:28:58.398Z,63.02
2017-05-25T09:30:10.644Z,63.89
2017-05-25T09:31:23.179Z,64.08
2017-05-25T09:32:35.735Z,64.43
2017-05-25T09:33:47.731Z,65.01
2017-05-25T09:35:00.270Z,65.01
2017-05-25T09:36:12.523Z,66.07
2017-05-25T09:37:24.183Z,66.04
2017-05-25T09:38:36.733Z,66.04
2017-05-25T09:39:48.976Z,66.24
2017-05-25T09:41:01.497Z,66.04
2017-05-25T09:42:14.028Z,66.42
2017-05-25T09:43:25.375Z,66.33
2017-05-25T09:44:37.933Z,66.49
2017-05-25T09:45:49.862Z,67.74
2017-05-25T09:47:02.429Z,68.51
2017-05-25T09:48:14.958Z,69.28
2017-05-25T09:49:26.904Z,69.92
2017-05-25T09:50:39.441Z,70.5
2017-05-25T09:51:51.692Z,70.98
2017-05-25T09:53:03.634Z,70.94
2017-05-25T09:54:16.179Z,70.84
2017-05-25T09:55:28.483Z,71.46
2017-05-25T09:56:40.704Z,71.26
2017-05-25T09:57:53.271Z,71.55
2017-05-25T09:59:05.749Z,71.36
2017-05-25T10:00:18.309Z,71.17
2017-05-25T10:01:30.563Z,71.08
2017-05-25T10:02:43.110Z,71.46
2017-05-25T10:03:55.672Z,71.78
2017-05-25T10:05:07.915Z,70.72
2017-05-25T10:06:20.472Z,69.57
2017-05-25T10:07:32.995Z,69.79
2017-05-25T10:08:45.006Z,68.84
2017-05-25T10:09:57.575Z,68.16
2017-05-25T10:11:09.523Z,68.19
2017-05-25T10:12:21.748Z,68.35
2017-05-25T10:13:34.293Z,67.87
2017-05-25T10:14:46.843Z,68.26
2017-05-25T10:15:59.089Z,67.97
2017-05-25T10:17:11.652Z,68.26
2017-05-25T10:18:24.206Z,68.26
2017-05-25T10:19:36.750Z,68.6
2017-05-25T10:20:49.547Z,69.09
2017-05-25T10:22:01.811Z,68.9
2017-05-25T10:23:14.356Z,69.18
2017-05-25T10:24:26.628Z,69.18
2017-05-25T10:25:39.145Z,69.09
2017-05-25T10:26:51.672Z,69.09
2017-05-25T10:28:03.621Z,69.18
2017-05-25T10:29:16.148Z,69.18
2017-05-25T10:30:28.713Z,69.57
2017-05-25T10:31:41.249Z,70.4
2017-05-25T10:32:53.783Z,70.4
2017-05-25T10:34:06.024Z,70.59
2017-05-25T10:35:18.570Z,69.92
2017-05-25T10:36:31.116Z,70.68
2017-05-25T10:37:43.657Z,70.88
2017-05-25T10:38:56.234Z,71.08
2017-05-25T10:40:07.849Z,71.46
2017-05-25T10:41:20.404Z,71.36
2017-05-25T10:42:32.325Z,71.55
2017-05-25T10:43:44.571Z,71.84
2017-05-25T10:44:56.805Z,71.26
2017-05-25T10:46:09.337Z,70.78
2017-05-25T10:47:21.583Z,71.11
2017-05-25T10:48:34.128Z,70.43
2017-05-25T10:49:46.678Z,68.51
2017-05-25T10:50:59.243Z,67.77
2017-05-25T10:52:11.463Z,66.65
2017-05-25T10:53:23.113Z,66.17
2017-05-25T10:54:35.651Z,66.11
2017-05-25T10:55:47.876Z,64.47
2017-05-25T10:56:59.814Z,64.11
2017-05-25T10:58:12.050Z,64.11
2017-05-25T10:59:24.293Z,62.76
2017-05-25T11:00:36.559Z,62.7
2017-05-25T11:01:48.797Z,62.28
2017-05-25T11:03:01.326Z,62.7
2017-05-25T11:04:13.889Z,62.7
2017-05-25T11:05:25.794Z,62.86
2017-05-25T11:06:38.344Z,63.54
2017-05-25T11:07:50.588Z,63.34
2017-05-25T11:09:03.163Z,63.34
2017-05-25T11:10:15.707Z,63.98
2017-05-25T11:11:28.248Z,64.56
2017-05-25T11:12:40.813Z,63.98
2017-05-25T11:13:53.333Z,64.56
2017-05-25T11:15:05.485Z,64.86
2017-05-25T11:16:17.427Z,64.25
2017-05-25T11:17:30.002Z,65.59
2017-05-25T11:18:42.540Z,66.07
2017-05-25T11:19:54.790Z,66.17
2017-05-25T11:21:07.315Z,66.07
2017-05-25T11:22:19.840Z,66.46
2017-05-25T11:23:32.109Z,66.94
2017-05-25T11:24:44.381Z,67.19
2017-05-25T11:25:56.598Z,67.49
2017-05-25T11:27:08.864Z,67.87
2017-05-25T11:28:21.092Z,68.06
2017-05-25T11:29:33.662Z,68.35
2017-05-25T11:30:46.200Z,68.13
2017-05-25T11:31:58.478Z,69.85
2017-05-25T11:33:10.416Z,70.3
2017-05-25T11:34:22.345Z,71.08
2017-05-25T11:35:34.569Z,71.81
2017-05-25T11:36:46.840Z,71.52
2017-05-25T11:37:59.082Z,72.19
2017-05-25T11:39:11.332Z,72.86
2017-05-25T11:40:23.277Z,74.21
2017-05-25T11:41:35.545Z,73.69
2017-05-25T11:42:47.791Z,74.27
2017-05-25T11:44:00.042Z,75.04
2017-05-25T11:45:12.575Z,75.42
2017-05-25T11:46:24.521Z,76
2017-05-25T11:47:37.378Z,76
2017-05-25T11:48:49.338Z,75.62
2017-05-25T11:50:01.586Z,75.04
2017-05-25T11:51:13.230Z,73.54
2017-05-25T11:52:25.454Z,72.58
2017-05-25T11:53:37.722Z,72.38
2017-05-25T11:54:50.276Z,72.58
2017-05-25T11:56:02.514Z,72.19
2017-05-25T11:57:14.160Z,71.52
2017-05-25T11:58:26.389Z,70.37
2017-05-25T11:59:38.628Z,70.84
2017-05-25T12:00:51.173Z,70.84
2017-05-25T12:02:03.705Z,70.46
2017-05-25T12:03:16.249Z,70.46
2017-05-25T12:04:28.768Z,71.04
2017-05-25T12:05:41.340Z,70.94
2017-05-25T12:06:53.892Z,71.33
2017-05-25T12:08:06.434Z,71.33
2017-05-25T12:09:18.405Z,71.81
2017-05-25T12:10:30.618Z,72.29
2017-05-25T12:11:42.895Z,72.38
2017-05-25T12:12:55.467Z,72
2017-05-25T12:14:08.004Z,71.71
2017-05-25T12:15:20.251Z,71.33
2017-05-25T12:16:32.495Z,70.88
2017-05-25T12:17:45.023Z,71.17
2017-05-25T12:18:57.561Z,71.26
2017-05-25T12:20:10.393Z,69.82
2017-05-25T12:21:22.339Z,70.3
2017-05-25T12:22:33.999Z,70.3
2017-05-25T12:23:46.252Z,68.99
2017-05-25T12:24:58.199Z,69.28
2017-05-25T12:26:10.152Z,68.6
2017-05-25T12:27:22.384Z,68.7
2017-05-25T12:28:34.637Z,67.35
2017-05-25T12:29:47.203Z,67.35
2017-05-25T12:30:59.775Z,66.97
2017-05-25T12:32:12.299Z,67.87
2017-05-25T12:33:24.820Z,67.1
2017-05-25T12:34:37.069Z,67.19
2017-05-25T12:35:49.033Z,67.49
2017-05-25T12:37:01.560Z,67.29
2017-05-25T12:38:13.200Z,67.49
2017-05-25T12:39:25.475Z,67.29
2017-05-25T12:40:37.423Z,67.74
2017-05-25T12:41:49.294Z,68.26
2017-05-25T12:43:01.838Z,68.35
2017-05-25T12:44:14.084Z,67.29
2017-05-25T12:45:26.349Z,67
2017-05-25T12:46:38.618Z,66.52
2017-05-25T12:47:51.146Z,67.19
2017-05-25T12:49:03.367Z,67.19
2017-05-25T12:50:15.915Z,67.39
2017-05-25T12:51:28.139Z,67.87
2017-05-25T12:52:40.671Z,68.06
2017-05-25T12:53:52.901Z,68.26
2017-05-25T12:55:05.139Z,68.26
2017-05-25T12:56:17.072Z,68.54
2017-05-25T12:57:29.612Z,67.97
2017-05-25T12:58:41.559Z,67.19
2017-05-25T12:59:54.107Z,67.39
2017-05-25T13:01:06.347Z,68.06
2017-05-25T13:02:18.889Z,68.54
2017-05-25T13:03:31.139Z,68.93
2017-05-25T13:04:43.656Z,68.26
2017-05-25T13:05:55.884Z,67.49
2017-05-25T13:07:08.426Z,67
2017-05-25T13:08:20.944Z,66.42
2017-05-25T13:09:33.172Z,66.81
2017-05-25T13:10:45.718Z,67.39
2017-05-25T13:11:58.036Z,67
2017-05-25T13:13:10.555Z,66.91
2017-05-25T13:14:22.511Z,66.24
2017-05-25T13:15:34.454Z,66.62
2017-05-25T13:16:46.698Z,66.62
2017-05-25T13:17:58.944Z,67.19
2017-05-25T13:19:11.183Z,67.19
2017-05-25T13:20:23.742Z,67.29
2017-05-25T13:21:36.312Z,67.29
2017-05-25T13:22:48.558Z,67.19
2017-05-25T13:24:00.824Z,68.06
2017-05-25T13:25:13.044Z,67.87
2017-05-25T13:26:25.282Z,68.06
2017-05-25T13:27:37.228Z,67.68
2017-05-25T13:28:49.724Z,67.29
2017-05-25T13:30:02.253Z,67.39
2017-05-25T13:31:14.228Z,67.13
2017-05-25T13:32:26.463Z,66.55
2017-05-25T13:33:38.987Z,65.3
2017-05-25T13:34:50.982Z,64.86
2017-05-25T13:36:03.225Z,64.95
2017-05-25T13:37:15.758Z,64.86
2017-05-25T13:38:27.374Z,63.89
2017-05-25T13:39:39.624Z,63.98
2017-05-25T13:40:52.167Z,64.56
2017-05-25T13:42:04.690Z,64.56
2017-05-25T13:43:16.937Z,63.5
2017-05-25T13:44:29.171Z,63.79
2017-05-25T13:45:41.691Z,63.79
2017-05-25T13:46:53.621Z,63.7
2017-05-25T13:48:05.849Z,63.5
2017-05-25T13:49:18.067Z,63.57
2017-05-25T13:50:30.035Z,63.31
2017-05-25T13:51:42.584Z,63.31
2017-05-25T13:52:54.828Z,62.25
2017-05-25T13:54:07.403Z,62.25
2017-05-25T13:55:19.943Z,62.18
2017-05-25T13:56:32.530Z,61.51
2017-05-25T13:57:44.754Z,60.83
2017-05-25T13:58:56.730Z,60.48
2017-05-25T14:00:08.358Z,59.42
2017-05-25T14:01:20.926Z,59.8
2017-05-25T14:02:33.488Z,59.61
2017-05-25T14:03:45.733Z,58.39
2017-05-25T14:04:57.960Z,58.77
2017-05-25T14:06:10.507Z,58.77
2017-05-25T14:07:23.080Z,59.06
2017-05-25T14:08:35.348Z,59.55
2017-05-25T14:09:47.589Z,58.97
2017-05-25T14:10:59.536Z,58.87
2017-05-25T14:12:11.782Z,58.97
2017-05-25T14:13:24.006Z,59.16
2017-05-25T14:14:36.528Z,59.45
2017-05-25T14:15:48.493Z,57.9
2017-05-25T14:17:01.072Z,57.81
2017-05-25T14:18:13.033Z,58.1
2017-05-25T14:19:25.281Z,57.62
2017-05-25T14:20:37.227Z,58
2017-05-25T14:21:49.778Z,58.8
2017-05-25T14:23:02.324Z,58.7
2017-05-25T14:24:14.877Z,59.09
2017-05-25T14:25:26.815Z,59.67
2017-05-25T14:26:39.354Z,59.38
2017-05-25T14:27:51.578Z,60.25
2017-05-25T14:29:04.146Z,59.58
2017-05-25T14:30:16.916Z,59.28
2017-05-25T14:31:28.839Z,58.8
2017-05-25T14:32:41.370Z,58.64
2017-05-25T14:33:53.914Z,58.25
2017-05-25T14:35:06.450Z,57.96
2017-05-25T14:36:18.657Z,57.57
2017-05-25T14:37:31.200Z,57.48
2017-05-25T14:38:42.849Z,56.99
2017-05-25T14:39:55.117Z,56.51
2017-05-25T14:41:07.682Z,57.19
2017-05-25T14:42:19.633Z,56.8
2017-05-25T14:43:31.875Z,56.99
2017-05-25T14:44:44.446Z,56.9
2017-05-25T14:45:57.002Z,56.9
2017-05-25T14:47:09.545Z,57.19
2017-05-25T14:48:21.787Z,57.64
2017-05-25T14:49:34.005Z,58.03
2017-05-25T14:50:45.947Z,57.45
2017-05-25T14:51:58.476Z,58.61
2017-05-25T14:53:10.752Z,59.58
2017-05-25T14:54:22.993Z,60.03
2017-05-25T14:55:35.234Z,59.45
2017-05-25T14:56:47.505Z,59.83
2017-05-25T14:57:59.735Z,59.45
2017-05-25T14:59:11.980Z,59.45
2017-05-25T15:00:24.228Z,59.42
2017-05-25T15:01:36.496Z,59.32
2017-05-25T15:02:48.414Z,58.94
2017-05-25T15:04:00.951Z,59.32
2017-05-25T15:05:12.898Z,59.61
2017-05-25T15:06:24.848Z,59.61
2017-05-25T15:07:37.104Z,60
2017-05-25T15:08:49.646Z,59.9
2017-05-25T15:10:02.194Z,59.9
2017-05-25T15:11:14.736Z,59.8
2017-05-25T15:12:27.260Z,59.52
2017-05-25T15:13:39.772Z,59.71
2017-05-25T15:14:51.999Z,60.06
2017-05-25T15:16:04.263Z,60.35
2017-05-25T15:17:16.819Z,59.87
2017-05-25T15:18:29.081Z,60.64
2017-05-25T15:19:41.049Z,60.55
2017-05-25T15:20:53.571Z,60.52
2017-05-25T15:22:06.074Z,61
2017-05-25T15:23:18.673Z,60.8
2017-05-25T15:24:30.615Z,61.35
2017-05-25T15:25:42.263Z,62.22
2017-05-25T15:26:54.178Z,62.51
2017-05-25T15:28:06.719Z,62.32
2017-05-25T15:29:18.953Z,62.6
2017-05-25T15:30:31.491Z,63.25
2017-05-25T15:31:43.762Z,62.48
2017-05-25T15:32:56.020Z,62.77
2017-05-25T15:34:08.257Z,63.25